createdAt,value
2023-01-05T00:00:11.588Z,39.73
2023-01-05T00:02:41.117Z,39.91
2023-01-05T00:05:07.984Z,39.82
2023-01-05T00:07:34.487Z,39.95
2023-01-05T00:10:01.068Z,39.98
2023-01-05T00:12:46.225Z,39.70
2023-01-05T00:15:31.084Z,39.89
2023-01-05T00:18:16.260Z,39.80
2023-01-05T00:21:01.272Z,39.71
2023-01-05T00:23:27.791Z,39.84
2023-01-05T00:25:54.342Z,40.00
2023-01-05T00:28:20.920Z,40.04
2023-01-05T00:30:47.648Z,39.91
2023-01-05T00:33:15.376Z,39.92
2023-01-05T00:35:41.995Z,40.14
2023-01-05T00:38:08.760Z,40.02
2023-01-05T00:40:35.593Z,39.76
2023-01-05T00:43:03.834Z,39.76
2023-01-05T00:45:30.494Z,39.79
2023-01-05T00:47:57.147Z,39.96
2023-01-05T00:50:23.859Z,39.90
2023-01-05T00:52:50.397Z,39.89
2023-01-05T00:55:17.103Z,39.91
2023-01-05T00:57:43.929Z,39.71
2023-01-05T01:00:16.375Z,40.20
2023-01-05T01:02:43.023Z,39.96
2023-01-05T01:05:09.951Z,39.90
2023-01-05T01:07:36.573Z,39.88
2023-01-05T01:10:05.183Z,39.96
2023-01-05T01:12:31.772Z,39.97
2023-01-05T01:14:58.342Z,40.05
2023-01-05T01:17:24.979Z,39.91
2023-01-05T01:19:51.617Z,39.89
2023-01-05T01:22:18.197Z,40.06
2023-01-05T01:24:44.718Z,40.02
2023-01-05T01:27:11.533Z,39.94
2023-01-05T01:29:39.335Z,39.89
2023-01-05T01:32:05.910Z,39.96
2023-01-05T01:34:32.645Z,40.01
2023-01-05T01:37:00.226Z,39.96
2023-01-05T01:39:32.065Z,39.69
2023-01-05T01:42:03.736Z,39.79
2023-01-05T01:44:48.534Z,40.04
2023-01-05T01:47:47.026Z,40.01
2023-01-05T01:50:24.995Z,39.99
2023-01-05T01:52:52.841Z,40.08
2023-01-05T01:55:19.453Z,39.96
2023-01-05T01:57:46.191Z,39.86
2023-01-05T02:00:14.697Z,40.01
2023-01-05T02:02:46.486Z,40.02
2023-01-05T02:05:16.131Z,39.84
2023-01-05T02:07:44.915Z,40.08
2023-01-05T02:10:12.257Z,40.07
2023-01-05T02:13:09.947Z,40.00
2023-01-05T02:15:39.975Z,39.96
2023-01-05T02:18:27.960Z,40.13
2023-01-05T02:21:25.390Z,39.87
2023-01-05T02:24:03.380Z,40.01
2023-01-05T02:26:41.919Z,40.18
2023-01-05T02:29:46.870Z,40.12
2023-01-05T02:32:19.992Z,40.03
2023-01-05T02:34:55.963Z,40.01
2023-01-05T02:37:30.913Z,39.81
2023-01-05T02:40:00.152Z,39.95
2023-01-05T02:42:28.195Z,40.20
2023-01-05T02:44:54.776Z,40.00
2023-01-05T02:47:27.831Z,40.10
2023-01-05T02:49:57.441Z,39.87
2023-01-05T02:52:24.131Z,39.75
2023-01-05T02:55:02.942Z,39.98
2023-01-05T02:57:47.156Z,39.79
2023-01-05T03:00:21.267Z,40.07
2023-01-05T03:02:50.756Z,39.99
2023-01-05T03:05:22.943Z,40.13
2023-01-05T03:07:51.180Z,40.06
2023-01-05T03:10:36.289Z,39.82
2023-01-05T03:13:24.406Z,39.92
2023-01-05T03:15:51.399Z,39.97
2023-01-05T03:18:19.272Z,40.07
2023-01-05T03:20:50.538Z,40.46
2023-01-05T03:23:36.280Z,39.80
2023-01-05T03:26:23.069Z,39.95
2023-01-05T03:29:11.909Z,40.17
2023-01-05T03:31:59.520Z,40.08
2023-01-05T03:35:11.477Z,40.08
2023-01-05T03:37:45.064Z,39.97
2023-01-05T03:40:20.443Z,40.11
2023-01-05T03:42:48.471Z,40.04
2023-01-05T03:45:15.370Z,40.14
2023-01-05T03:47:42.662Z,39.93
2023-01-05T03:50:09.496Z,39.81
2023-01-05T03:52:37.370Z,39.82
2023-01-05T03:55:04.236Z,39.87
2023-01-05T03:57:31.176Z,40.22
2023-01-05T03:59:58.865Z,40.14
2023-01-05T04:02:25.674Z,40.11
2023-01-05T04:04:52.366Z,39.95
2023-01-05T04:07:21.182Z,39.95
2023-01-05T04:09:48.188Z,39.98
2023-01-05T04:12:14.814Z,40.19
2023-01-05T04:14:43.916Z,39.95
2023-01-05T04:17:10.492Z,40.00
2023-01-05T04:19:38.675Z,39.85
2023-01-05T04:22:05.365Z,39.93
2023-01-05T04:24:32.020Z,40.20
2023-01-05T04:27:00.406Z,40.27
2023-01-05T04:29:27.786Z,40.23
2023-01-05T04:31:55.253Z,40.25
2023-01-05T04:34:22.088Z,40.08
2023-01-05T04:36:51.316Z,40.12
2023-01-05T04:39:20.521Z,40.03
2023-01-05T04:41:50.361Z,40.12
2023-01-05T04:44:19.013Z,40.06
2023-01-05T04:46:46.030Z,40.00
2023-01-05T04:49:13.488Z,40.21
2023-01-05T04:51:41.119Z,39.92
2023-01-05T04:54:08.965Z,40.08
2023-01-05T04:56:35.712Z,40.24
2023-01-05T04:59:07.119Z,40.07
2023-01-05T05:01:35.725Z,40.31
2023-01-05T05:04:03.860Z,39.97
2023-01-05T05:06:30.431Z,39.95
2023-01-05T05:08:58.601Z,40.19
2023-01-05T05:11:26.206Z,40.17
2023-01-05T05:13:52.730Z,40.09
2023-01-05T05:16:19.511Z,39.92
2023-01-05T05:18:47.896Z,39.94
2023-01-05T05:21:20.267Z,39.98
2023-01-05T05:23:46.861Z,39.95
2023-01-05T05:26:13.879Z,40.06
2023-01-05T05:28:40.513Z,40.04
2023-01-05T05:31:07.125Z,40.13
2023-01-05T05:33:36.649Z,40.11
2023-01-05T05:36:03.456Z,40.23
2023-01-05T05:38:29.953Z,40.04
2023-01-05T05:40:56.484Z,39.98
2023-01-05T05:43:23.017Z,40.14
2023-01-05T05:45:50.854Z,40.39
2023-01-05T05:48:18.596Z,40.08
2023-01-05T05:50:45.399Z,40.15
2023-01-05T05:53:11.936Z,40.16
2023-01-05T05:55:38.470Z,40.10
2023-01-05T05:58:05.004Z,40.17
2023-01-05T06:00:31.566Z,40.09
2023-01-05T06:02:58.146Z,40.11
2023-01-05T06:05:24.802Z,40.01
2023-01-05T06:07:51.407Z,40.13
2023-01-05T06:10:17.921Z,40.33
2023-01-05T06:12:44.493Z,39.92
2023-01-05T06:15:11.226Z,40.20
2023-01-05T06:17:37.750Z,40.21
2023-01-05T06:20:05.341Z,39.91
2023-01-05T06:22:31.920Z,40.11
2023-01-05T06:25:01.371Z,39.88
2023-01-05T06:27:27.929Z,40.19
2023-01-05T06:29:54.432Z,40.14
2023-01-05T06:32:21.057Z,39.98
2023-01-05T06:34:47.592Z,39.94
2023-01-05T06:37:14.146Z,39.90
2023-01-05T06:39:40.647Z,40.25
2023-01-05T06:42:07.221Z,40.29
2023-01-05T06:44:34.881Z,39.92
2023-01-05T06:47:01.562Z,39.98
2023-01-05T06:49:28.161Z,40.05
2023-01-05T06:51:54.860Z,39.96
2023-01-05T06:54:21.389Z,40.11
2023-01-05T06:56:47.929Z,40.04
2023-01-05T06:59:14.560Z,40.22
2023-01-05T07:01:41.193Z,39.81
2023-01-05T07:04:07.883Z,39.83
2023-01-05T07:06:35.734Z,40.17
2023-01-05T07:09:02.325Z,39.98
2023-01-05T07:11:28.874Z,40.11
2023-01-05T07:13:55.448Z,39.97
2023-01-05T07:16:22.078Z,40.21
2023-01-05T07:18:48.676Z,40.03
2023-01-05T07:21:15.248Z,39.96
2023-01-05T07:23:41.894Z,40.16
2023-01-05T07:26:08.626Z,40.14
2023-01-05T07:28:35.908Z,40.29
2023-01-05T07:31:02.564Z,40.07
2023-01-05T07:33:29.176Z,40.05
2023-01-05T07:35:55.741Z,40.16
2023-01-05T07:38:22.347Z,40.12
2023-01-05T07:40:48.958Z,40.05
2023-01-05T07:43:16.420Z,40.02
2023-01-05T07:45:43.693Z,40.15
2023-01-05T07:48:10.304Z,40.07
2023-01-05T07:50:36.941Z,40.06
2023-01-05T07:53:03.497Z,40.11
2023-01-05T07:55:30.044Z,40.10
2023-01-05T07:57:56.557Z,40.17
2023-01-05T08:00:23.219Z,40.09
2023-01-05T08:02:49.753Z,39.80
2023-01-05T08:05:16.371Z,40.15
2023-01-05T08:07:42.975Z,40.27
2023-01-05T08:10:28.591Z,40.33
2023-01-05T08:13:13.920Z,40.25
2023-01-05T08:15:42.639Z,40.06
2023-01-05T08:18:11.320Z,40.21
2023-01-05T08:20:37.884Z,40.11
2023-01-05T08:23:04.452Z,39.94
2023-01-05T08:25:30.979Z,40.26
2023-01-05T08:27:57.612Z,40.16
2023-01-05T08:30:24.176Z,39.95
2023-01-05T08:32:50.798Z,40.28
2023-01-05T08:35:17.454Z,40.24
2023-01-05T08:37:45.387Z,40.09
2023-01-05T08:40:12.240Z,40.27
2023-01-05T08:42:39.213Z,40.24
2023-01-05T08:45:06.413Z,40.12
2023-01-05T08:47:33.082Z,39.97
2023-01-05T08:49:59.615Z,40.34
2023-01-05T08:52:26.150Z,40.10
2023-01-05T08:54:52.776Z,40.09
2023-01-05T08:57:19.356Z,40.19
2023-01-05T08:59:45.908Z,40.35
2023-01-05T09:02:12.768Z,40.21
2023-01-05T09:04:39.600Z,40.27
2023-01-05T09:07:06.204Z,40.08
2023-01-05T09:09:32.806Z,40.28
2023-01-05T09:11:59.382Z,40.24
2023-01-05T09:14:26.006Z,40.07
2023-01-05T09:17:08.734Z,39.98
2023-01-05T09:19:35.936Z,40.25
2023-01-05T09:22:02.536Z,40.04
2023-01-05T09:24:29.258Z,40.13
2023-01-05T09:26:56.128Z,40.06
2023-01-05T09:29:22.778Z,40.05
2023-01-05T09:31:49.407Z,40.23
2023-01-05T09:34:16.302Z,40.27
2023-01-05T09:36:42.977Z,40.02
2023-01-05T09:39:09.796Z,40.15
2023-01-05T09:41:47.136Z,40.05
2023-01-05T09:44:25.732Z,40.19
2023-01-05T09:46:52.557Z,40.10
2023-01-05T09:49:21.624Z,40.33
2023-01-05T09:51:48.387Z,40.15
2023-01-05T09:54:17.167Z,40.20
2023-01-05T09:59:35.172Z,40.05
2023-01-05T10:02:04.740Z,40.08
2023-01-05T10:04:32.073Z,39.92
2023-01-05T10:07:03.831Z,40.04
2023-01-05T10:09:33.255Z,40.00
2023-01-05T10:12:21.356Z,40.15
2023-01-05T10:14:53.335Z,40.26
2023-01-05T10:20:28.735Z,40.16
2023-01-05T10:23:26.978Z,40.13
2023-01-05T10:26:04.134Z,40.13
2023-01-05T10:28:55.533Z,40.28
2023-01-05T10:31:50.123Z,40.49
2023-01-05T10:34:21.317Z,40.14
2023-01-05T10:37:18.608Z,40.06
2023-01-05T10:40:09.421Z,40.23
2023-01-05T10:42:54.462Z,40.39
2023-01-05T10:45:21.184Z,40.19
2023-01-05T10:47:48.486Z,40.35
2023-01-05T10:50:27.705Z,40.28
2023-01-05T10:52:54.640Z,40.43
2023-01-05T10:55:21.199Z,40.54
2023-01-05T10:57:47.890Z,40.43
2023-01-05T11:00:21.541Z,40.28
2023-01-05T11:02:58.567Z,40.54
2023-01-05T11:05:32.163Z,40.29
2023-01-05T11:08:06.641Z,40.49
2023-01-05T11:10:50.608Z,40.38
2023-01-05T11:13:17.029Z,40.45
2023-01-05T11:15:45.969Z,40.55
2023-01-05T11:18:27.322Z,40.37
2023-01-05T11:21:16.825Z,40.49
2023-01-05T11:23:48.154Z,40.31
2023-01-05T11:26:20.724Z,40.40
2023-01-05T11:29:06.596Z,40.51
2023-01-05T11:31:44.040Z,40.47
2023-01-05T11:34:33.056Z,40.59
2023-01-05T11:37:12.142Z,40.32
2023-01-05T11:40:04.236Z,40.61
2023-01-05T11:42:34.723Z,40.56
2023-01-05T11:45:29.278Z,40.56
2023-01-05T11:47:57.568Z,40.39
2023-01-05T11:50:27.726Z,40.43
2023-01-05T11:52:58.574Z,40.41
2023-01-05T11:55:29.845Z,40.68
2023-01-05T11:58:22.579Z,40.15
2023-01-05T12:00:55.675Z,40.56
2023-01-05T12:03:28.083Z,40.53
2023-01-05T12:05:58.534Z,40.27
2023-01-05T12:08:31.134Z,40.32
2023-01-05T12:11:18.971Z,40.17
2023-01-05T12:14:00.347Z,40.29
2023-01-05T12:16:45.817Z,40.30
2023-01-05T12:19:19.549Z,40.28
2023-01-05T12:22:24.519Z,40.43
2023-01-05T12:25:17.554Z,40.13
2023-01-05T12:28:05.322Z,40.22
2023-01-05T12:34:01.668Z,40.40
2023-01-05T12:36:34.649Z,40.44
2023-01-05T12:39:01.131Z,40.45
2023-01-05T12:41:49.441Z,40.56
2023-01-05T12:44:54.899Z,40.40
2023-01-05T12:47:36.912Z,40.45
2023-01-05T12:50:29.411Z,40.73
2023-01-05T12:53:18.824Z,40.38
2023-01-05T12:55:50.378Z,40.50
2023-01-05T12:58:25.989Z,40.39
2023-01-05T13:00:53.165Z,40.41
2023-01-05T13:03:24.295Z,40.43
2023-01-05T13:06:18.047Z,40.51
2023-01-05T13:08:54.420Z,40.55
2023-01-05T13:11:27.106Z,40.35
2023-01-05T13:14:10.901Z,40.57
2023-01-05T13:16:42.002Z,40.39
2023-01-05T13:19:22.208Z,40.50
2023-01-05T13:21:48.798Z,40.41
2023-01-05T13:24:37.593Z,40.61
2023-01-05T13:27:04.188Z,40.40
2023-01-05T13:29:36.677Z,40.31
2023-01-05T13:35:33.442Z,40.50
2023-01-05T13:37:59.919Z,40.68
2023-01-05T13:41:14.681Z,40.56
2023-01-05T13:44:14.984Z,40.39
2023-01-05T13:46:47.754Z,40.48
2023-01-05T13:49:41.979Z,40.61
2023-01-05T13:52:23.218Z,40.40
2023-01-05T13:55:01.175Z,40.31
2023-01-05T13:57:37.655Z,40.71
2023-01-05T14:00:10.994Z,40.43
2023-01-05T14:02:41.182Z,40.51
2023-01-05T14:05:22.401Z,40.63
2023-01-05T14:07:49.005Z,40.40
2023-01-05T14:10:26.967Z,40.49
2023-01-05T14:12:56.544Z,40.72
2023-01-05T14:15:39.276Z,40.66
2023-01-05T14:18:52.297Z,40.28
2023-01-05T14:21:53.739Z,40.42
2023-01-05T14:24:33.736Z,40.29
2023-01-05T14:27:17.177Z,40.51
2023-01-05T14:29:47.083Z,40.44
2023-01-05T14:32:19.887Z,40.25
2023-01-05T14:34:57.873Z,40.38
2023-01-05T14:37:29.481Z,40.51
2023-01-05T14:40:04.061Z,40.37
2023-01-05T14:42:39.554Z,40.28
2023-01-05T14:45:18.965Z,40.13
2023-01-05T14:47:47.238Z,40.28
2023-01-05T14:50:40.839Z,40.29
2023-01-05T14:53:13.935Z,40.29
2023-01-05T14:55:52.725Z,40.26
2023-01-05T14:58:37.407Z,40.19
2023-01-05T15:01:16.370Z,40.43
2023-01-05T15:04:08.839Z,40.63
2023-01-05T15:06:50.500Z,40.46
2023-01-05T15:09:35.103Z,40.56
2023-01-05T15:12:20.474Z,40.49
2023-01-05T15:15:04.072Z,40.46
2023-01-05T15:17:44.988Z,40.57
2023-01-05T15:20:42.669Z,40.54
2023-01-05T15:23:23.359Z,40.44
2023-01-05T15:26:03.257Z,40.40
2023-01-05T15:28:51.016Z,40.49
2023-01-05T15:31:20.732Z,40.20
2023-01-05T15:33:54.611Z,40.34
2023-01-05T15:36:32.278Z,40.40
2023-01-05T15:38:58.957Z,40.59
2023-01-05T15:41:26.330Z,40.20
2023-01-05T15:43:53.010Z,40.47
2023-01-05T15:46:20.928Z,40.38
2023-01-05T15:48:50.216Z,40.46
2023-01-05T15:51:31.021Z,40.29
2023-01-05T15:54:04.027Z,40.24
2023-01-05T15:56:33.064Z,40.38
2023-01-05T15:58:59.928Z,40.38
2023-01-05T16:01:27.600Z,40.34
2023-01-05T16:04:07.942Z,40.26
2023-01-05T16:06:39.316Z,40.22
2023-01-05T16:09:11.604Z,40.22
2023-01-05T16:11:42.506Z,40.39
2023-01-05T16:14:28.659Z,40.34
2023-01-05T16:17:02.852Z,40.53
2023-01-05T16:19:48.037Z,40.35
2023-01-05T16:22:20.200Z,40.37
2023-01-05T16:25:04.477Z,40.14
2023-01-05T16:27:32.426Z,40.32
2023-01-05T16:30:31.478Z,40.47
2023-01-05T16:33:12.001Z,40.32
2023-01-05T16:36:08.692Z,40.39
2023-01-05T16:38:35.368Z,40.43
2023-01-05T16:41:19.916Z,40.45
2023-01-05T16:43:51.412Z,40.31
2023-01-05T16:46:20.488Z,40.36
2023-01-05T16:48:49.957Z,40.53
2023-01-05T16:51:18.316Z,40.45
2023-01-05T16:53:46.570Z,40.29
2023-01-05T16:56:19.422Z,40.56
2023-01-05T16:58:46.403Z,40.61
2023-01-05T17:01:12.934Z,40.34
2023-01-05T17:03:39.887Z,40.47
2023-01-05T17:06:06.648Z,40.28
2023-01-05T17:08:36.113Z,40.34
2023-01-05T17:11:03.470Z,40.30
2023-01-05T17:13:37.523Z,40.28
2023-01-05T17:16:05.668Z,40.27
2023-01-05T17:18:32.358Z,40.24
2023-01-05T17:20:58.975Z,40.45
2023-01-05T17:23:27.369Z,40.62
2023-01-05T17:25:58.154Z,40.32
2023-01-05T17:28:24.871Z,40.47
2023-01-05T17:30:52.340Z,40.47
2023-01-05T17:33:19.021Z,40.44
2023-01-05T17:35:45.979Z,40.55
2023-01-05T17:38:12.783Z,40.35
2023-01-05T17:40:39.706Z,40.48
2023-01-05T17:43:06.517Z,40.52
2023-01-05T17:45:33.266Z,40.43
2023-01-05T17:47:59.913Z,40.46
2023-01-05T17:53:04.361Z,40.20
2023-01-05T17:55:31.011Z,40.27
2023-01-05T17:57:57.815Z,40.48
2023-01-05T18:00:25.833Z,40.57
2023-01-05T18:02:52.958Z,40.57
2023-01-05T18:05:19.874Z,40.38
2023-01-05T18:07:46.718Z,40.43
2023-01-05T18:10:19.221Z,40.22
2023-01-05T18:12:46.000Z,40.58
2023-01-05T18:15:13.050Z,40.33
2023-01-05T18:17:39.735Z,40.49
2023-01-05T18:20:06.902Z,40.35
2023-01-05T18:22:33.499Z,40.40
2023-01-05T18:25:00.110Z,40.33
2023-01-05T18:27:26.744Z,40.44
2023-01-05T18:29:53.611Z,40.40
2023-01-05T18:32:20.306Z,40.22
2023-01-05T18:34:46.882Z,40.56
2023-01-05T18:37:21.467Z,40.41
2023-01-05T18:39:48.572Z,40.38
2023-01-05T18:42:15.169Z,40.45
2023-01-05T18:44:41.791Z,40.48
2023-01-05T18:47:08.785Z,40.54
2023-01-05T18:49:35.391Z,40.44
2023-01-05T18:52:01.995Z,40.62
2023-01-05T18:54:28.595Z,40.49
2023-01-05T18:56:55.260Z,40.48
2023-01-05T18:59:23.400Z,40.35
2023-01-05T19:01:50.072Z,40.26
2023-01-05T19:04:17.008Z,40.72
2023-01-05T19:06:43.748Z,40.31
2023-01-05T19:09:11.364Z,40.45
2023-01-05T19:11:38.910Z,40.30
2023-01-05T19:14:05.855Z,40.31
2023-01-05T19:16:33.505Z,40.50
2023-01-05T19:19:06.540Z,40.47
2023-01-05T19:21:33.484Z,40.48
2023-01-05T19:24:01.013Z,40.19
2023-01-05T19:26:28.576Z,40.32
2023-01-05T19:28:55.295Z,40.52
2023-01-05T19:31:23.650Z,40.28
2023-01-05T19:33:50.494Z,40.25
2023-01-05T19:36:19.181Z,40.24
2023-01-05T19:38:45.900Z,40.36
2023-01-05T19:41:20.881Z,40.43
2023-01-05T19:43:48.464Z,40.08
2023-01-05T19:46:15.616Z,40.62
2023-01-05T19:48:42.505Z,40.25
2023-01-05T19:51:10.999Z,40.11
2023-01-05T19:53:38.436Z,40.24
2023-01-05T19:56:15.399Z,39.99
2023-01-05T19:58:42.725Z,40.10
2023-01-05T20:01:16.024Z,40.22
2023-01-05T20:03:44.378Z,40.06
2023-01-05T20:06:14.578Z,40.23
2023-01-05T20:08:41.302Z,40.45
2023-01-05T20:11:12.565Z,40.04
2023-01-05T20:13:39.670Z,40.08
2023-01-05T20:16:09.107Z,40.52
2023-01-05T20:18:35.914Z,40.36
2023-01-05T20:21:03.568Z,40.50
2023-01-05T20:23:38.610Z,40.31
2023-01-05T20:26:05.541Z,40.34
2023-01-05T20:28:32.223Z,40.34
2023-01-05T20:30:58.917Z,40.42
2023-01-05T20:33:25.608Z,40.40
2023-01-05T20:35:52.239Z,40.33
2023-01-05T20:38:18.817Z,40.38
2023-01-05T20:40:45.562Z,40.24
2023-01-05T20:43:12.264Z,40.25
2023-01-05T20:45:39.372Z,40.30
2023-01-05T20:48:05.972Z,40.24
2023-01-05T20:50:32.680Z,40.24
2023-01-05T20:52:59.322Z,40.41
2023-01-05T20:55:29.040Z,40.50
2023-01-05T20:57:55.747Z,40.49
2023-01-05T21:00:23.607Z,40.31
2023-01-05T21:02:51.842Z,40.44
2023-01-05T21:05:18.564Z,40.21
2023-01-05T21:07:45.226Z,40.51
2023-01-05T21:10:11.859Z,40.28
2023-01-05T21:12:38.500Z,40.53
2023-01-05T21:15:05.866Z,40.40
2023-01-05T21:17:32.440Z,40.30
2023-01-05T21:19:59.024Z,40.31
2023-01-05T21:22:25.817Z,40.15
2023-01-05T21:24:52.501Z,40.40
2023-01-05T21:27:19.153Z,40.53
2023-01-05T21:29:45.799Z,40.19
2023-01-05T21:32:12.495Z,40.29
2023-01-05T21:34:39.147Z,40.22
2023-01-05T21:37:05.795Z,40.44
2023-01-05T21:39:32.587Z,40.48
2023-01-05T21:42:17.715Z,40.22
2023-01-05T21:44:44.394Z,40.26
2023-01-05T21:47:11.364Z,40.25
2023-01-05T21:49:38.047Z,40.32
2023-01-05T21:52:23.700Z,40.22
2023-01-05T21:55:08.776Z,40.21
2023-01-05T21:57:35.433Z,40.19
2023-01-05T22:00:02.281Z,40.37
2023-01-05T22:02:31.606Z,40.51
2023-01-05T22:04:58.255Z,40.30
2023-01-05T22:07:24.845Z,40.39
2023-01-05T22:09:51.482Z,40.28
2023-01-05T22:12:18.823Z,40.31
2023-01-05T22:14:45.829Z,40.20
2023-01-05T22:17:12.632Z,40.38
2023-01-05T22:19:39.242Z,40.31
2023-01-05T22:22:05.928Z,40.06
2023-01-05T22:24:32.614Z,40.40
2023-01-05T22:26:59.306Z,40.30
2023-01-05T22:29:25.955Z,40.26
2023-01-05T22:31:52.848Z,40.26
2023-01-05T22:34:19.515Z,40.31
2023-01-05T22:36:46.173Z,40.42
2023-01-05T22:39:12.785Z,40.00
2023-01-05T22:41:39.433Z,40.43
2023-01-05T22:44:06.089Z,40.05
2023-01-05T22:46:32.809Z,40.06
2023-01-05T22:48:59.553Z,40.10
2023-01-05T22:51:34.070Z,40.17
2023-01-05T22:54:00.953Z,40.20
2023-01-05T22:56:28.208Z,40.34
2023-01-05T22:58:55.507Z,40.03
2023-01-05T23:01:24.120Z,40.18
2023-01-05T23:03:51.290Z,40.29
2023-01-05T23:06:18.314Z,40.55
2023-01-05T23:08:45.456Z,40.34
2023-01-05T23:11:18.621Z,40.54
2023-01-05T23:13:45.349Z,40.19
2023-01-05T23:16:12.207Z,40.46
2023-01-05T23:18:39.087Z,40.24
2023-01-05T23:21:07.951Z,40.20
2023-01-05T23:23:34.590Z,40.26
2023-01-05T23:26:01.349Z,40.22
2023-01-05T23:28:28.346Z,40.25
2023-01-05T23:30:55.712Z,40.34
2023-01-05T23:33:23.429Z,40.21
2023-01-05T23:35:50.998Z,40.27
2023-01-05T23:38:17.623Z,40.38
2023-01-05T23:40:47.287Z,40.28
2023-01-05T23:43:15.715Z,40.45
2023-01-05T23:45:43.203Z,40.28
2023-01-05T23:48:10.249Z,40.06
2023-01-05T23:50:36.851Z,40.29
2023-01-05T23:53:03.838Z,40.11
2023-01-05T23:55:30.462Z,40.47
2023-01-05T23:57:57.995Z,40.25
